Time;durP1;ratioP1;P1;durP2;ratioP2;P2;SDS_P1;SDS_P2;PMS_P1;PMS_P2;Temp;Humidity;BMP_temperature;BMP_pressure;BME280_temperature;BME280_humidity;BME280_pressure;Samples;Min_cycle;Max_cycle;Signal;HPM_P1;HPM_P2
2021/03/14 00:00:46;;;;;;;7.00;3.00;;;5.40;99.90;;;;;;4981348;28;21183;-66
2021/03/14 00:03:17;;;;;;;5.03;2.47;;;5.40;99.90;;;;;;4986927;28;21250;-66
2021/03/14 00:05:44;;;;;;;4.90;2.17;;;5.50;99.90;;;;;;4980154;28;21174;-66
2021/03/14 00:08:21;;;;;;;6.57;2.77;;;5.50;99.90;;;;;;4981560;28;20649;-67
2021/03/14 00:10:50;;;;;;;5.47;2.80;;;5.40;99.90;;;;;;4984867;28;21221;-66
2021/03/14 00:13:28;;;;;;;;;;;;;;;;;;;;;
2021/03/14 00:15:59;;;;;;;7.10;2.60;;;5.30;99.90;;;;;;4979484;28;20623;-67
2021/03/14 00:18:39;;;;;;;4.40;2.50;;;5.40;99.90;;;;;;4980633;28;20613;-67
2021/03/14 00:21:25;;;;;;;;;;;;;;;;;;;;;
2021/03/14 00:23:57;;;;;;;6.43;2.40;;;5.40;99.90;;;;;;4981739;28;20661;-67
2021/03/14 00:26:32;;;;;;;2.43;2.20;;;5.30;99.90;;;;;;4981414;28;20652;-67
2021/03/14 00:29:12;;;;;;;7.47;2.90;;;5.30;99.90;;;;;;4982829;28;20698;-66
2021/03/14 00:31:41;;;;;;;4.13;2.20;;;5.40;99.90;;;;;;4993651;28;20589;-66
2021/03/14 00:34:16;;;;;;;4.10;2.30;;;5.40;99.90;;;;;;4982690;28;20676;-67
2021/03/14 00:36:55;;;;;;;5.60;3.27;;;5.40;99.90;;;;;;4981334;28;20633;-66
2021/03/14 00:39:36;;;;;;;6.27;2.70;;;5.40;99.90;;;;;;4982670;28;20644;-67
2021/03/14 00:42:11;;;;;;;4.67;2.60;;;5.40;99.90;;;;;;4978891;28;20632;-66
2021/03/14 00:44:41;;;;;;;8.03;2.20;;;5.30;99.90;;;;;;4979357;28;20728;-66
2021/03/14 00:47:10;;;;;;;3.47;2.00;;;5.20;99.90;;;;;;4985780;28;21654;-66
2021/03/14 00:49:43;;;;;;;3.33;1.43;;;5.20;99.90;;;;;;4986991;28;20643;-66
2021/03/14 00:52:09;;;;;;;3.67;1.27;;;5.30;99.90;;;;;;4981271;28;21505;-67
2021/03/14 00:54:41;;;;;;;2.17;1.37;;;5.30;99.90;;;;;;4983072;28;20637;-66
2021/03/14 00:57:13;;;;;;;3.67;1.47;;;5.30;99.90;;;;;;4984189;28;20182;-67
2021/03/14 00:59:43;;;;;;;2.43;1.40;;;5.20;99.90;;;;;;4984821;28;20585;-67
2021/03/14 01:02:17;;;;;;;1.97;1.40;;;5.20;99.90;;;;;;4982964;28;20722;-67
2021/03/14 01:04:51;;;;;;;4.87;1.53;;;5.10;99.90;;;;;;4979106;28;20668;-67
2021/03/14 01:07:24;;;;;;;4.57;1.60;;;5.10;99.90;;;;;;4978002;28;20676;-66
2021/03/14 01:09:50;;;;;;;2.17;1.23;;;5.20;99.90;;;;;;4984998;28;21124;-66
2021/03/14 01:12:20;;;;;;;2.10;1.27;;;5.10;99.90;;;;;;4978545;28;20641;-67
2021/03/14 01:14:48;;;;;;;3.10;1.40;;;5.10;99.90;;;;;;4981104;28;20206;-66
2021/03/14 01:17:14;;;;;;;2.80;1.50;;;5.20;99.90;;;;;;4979043;28;20609;-67
2021/03/14 01:19:53;;;;;;;2.43;1.27;;;5.10;99.90;;;;;;4978800;28;20617;-66
2021/03/14 01:22:21;;;;;;;3.20;1.23;;;5.20;99.90;;;;;;4978971;28;20229;-66
2021/03/14 01:27:38;;;;;;;1.73;1.10;;;5.20;99.90;;;;;;4985194;28;21186;-66
2021/03/14 01:30:12;;;;;;;5.00;1.50;;;5.20;99.90;;;;;;4981656;28;20681;-66
2021/03/14 01:32:41;;;;;;;2.83;1.20;;;5.20;99.90;;;;;;4980648;28;21282;-67
2021/03/14 01:35:10;;;;;;;2.87;1.50;;;5.30;99.90;;;;;;4980492;28;20649;-67
2021/03/14 01:37:38;;;;;;;3.97;1.50;;;5.30;99.90;;;;;;4979726;28;21022;-66
2021/03/14 01:40:19;;;;;;;3.60;1.50;;;5.30;99.90;;;;;;4984483;28;20676;-66
2021/03/14 01:42:45;;;;;;;4.30;1.77;;;5.20;99.90;;;;;;4985487;28;20652;-67
2021/03/14 01:45:20;;;;;;;3.67;1.80;;;5.20;99.90;;;;;;5000252;28;21027;-66
2021/03/14 01:47:54;;;;;;;7.60;2.07;;;5.20;99.90;;;;;;4994404;28;20652;-66
2021/03/14 01:50:27;;;;;;;5.37;1.93;;;5.10;99.90;;;;;;4979411;28;20692;-67
2021/03/14 01:52:53;;;;;;;2.63;1.90;;;5.10;99.90;;;;;;4981333;28;20677;-66
2021/03/14 01:55:24;;;;;;;5.53;2.63;;;5.10;99.90;;;;;;4985353;28;21210;-66
2021/03/14 01:57:50;;;;;;;3.47;2.17;;;5.10;99.90;;;;;;4981673;28;20690;-66
2021/03/14 02:00:21;;;;;;;7.33;2.67;;;5.10;99.90;;;;;;4981895;28;21179;-67
2021/03/14 02:03:00;;;;;;;4.30;2.67;;;5.10;99.90;;;;;;4981390;28;20750;-67
2021/03/14 02:05:33;;;;;;;6.07;2.60;;;5.20;99.90;;;;;;4980098;28;21263;-68
2021/03/14 02:08:04;;;;;;;5.73;2.47;;;5.20;99.90;;;;;;4973503;28;21187;-66
2021/03/14 02:10:36;;;;;;;6.80;3.53;;;5.20;99.90;;;;;;4979765;28;20808;-66
2021/03/14 02:13:22;;;;;;;5.57;2.60;;;5.20;99.90;;;;;;4986060;28;20720;-67
2021/03/14 02:16:06;;;;;;;3.80;2.43;;;5.20;99.90;;;;;;4999873;28;20637;-66
2021/03/14 02:18:48;;;;;;;4.57;3.03;;;5.30;99.90;;;;;;4994854;28;20629;-67
2021/03/14 02:21:19;;;;;;;5.30;2.73;;;5.30;99.90;;;;;;4982596;28;20621;-67
2021/03/14 02:24:09;;;;;;;4.87;3.10;;;5.40;99.90;;;;;;4982812;28;20772;-66
2021/03/14 02:26:43;;;;;;;4.20;2.33;;;5.30;99.90;;;;;;4995668;28;20699;-67
2021/03/14 02:29:18;;;;;;;7.83;2.80;;;5.30;99.90;;;;;;4980216;28;20767;-67
2021/03/14 02:31:56;;;;;;;7.80;2.67;;;5.20;99.90;;;;;;4982336;28;20679;-67
2021/03/14 02:34:44;;;;;;;6.70;3.50;;;5.20;99.90;;;;;;4976718;28;20657;-66
2021/03/14 02:37:34;;;;;;;8.57;3.40;;;5.30;99.90;;;;;;5001220;28;20621;-66
2021/03/14 02:40:01;;;;;;;9.37;3.77;;;5.30;99.90;;;;;;4978990;28;20644;-66
2021/03/14 02:42:36;;;;;;;11.93;3.57;;;5.20;99.90;;;;;;4976372;28;20721;-67
2021/03/14 02:45:06;;;;;;;8.80;3.63;;;5.20;99.90;;;;;;4986064;28;20604;-67
2021/03/14 02:47:43;;;;;;;11.13;4.20;;;5.30;99.90;;;;;;4981026;28;20634;-68
2021/03/14 02:50:28;;;;;;;6.73;2.73;;;5.40;99.90;;;;;;4976495;28;20664;-66
2021/03/14 02:53:05;;;;;;;7.57;3.70;;;5.50;99.90;;;;;;4985332;28;20703;-66
2021/03/14 02:55:39;;;;;;;9.23;3.40;;;5.60;99.90;;;;;;4993010;28;20823;-66
2021/03/14 02:58:14;;;;;;;10.70;3.47;;;5.60;99.90;;;;;;4980278;28;20596;-67
2021/03/14 03:00:45;;;;;;;8.10;2.97;;;5.60;99.90;;;;;;4976807;28;20782;-67
2021/03/14 03:03:12;;;;;;;8.30;3.20;;;5.50;99.90;;;;;;4981065;28;21243;-66
2021/03/14 03:05:48;;;;;;;4.17;2.37;;;5.30;99.90;;;;;;4984161;28;20637;-68
2021/03/14 03:08:21;;;;;;;5.97;2.80;;;5.30;99.90;;;;;;4979742;28;20632;-67
2021/03/14 03:10:54;;;;;;;3.40;2.50;;;5.20;99.90;;;;;;4978011;28;20601;-67
2021/03/14 03:13:23;;;;;;;4.90;3.17;;;5.20;99.90;;;;;;4988751;28;20741;-67
2021/03/14 03:16:02;;;;;;;6.43;3.17;;;5.20;99.90;;;;;;4987815;28;20623;-67
2021/03/14 03:18:31;;;;;;;4.87;3.10;;;5.10;99.90;;;;;;4981996;28;20594;-67
2021/03/14 03:21:00;;;;;;;5.33;4.20;;;5.30;99.90;;;;;;4980508;28;20617;-67
2021/03/14 03:23:25;;;;;;;6.00;3.80;;;5.20;99.90;;;;;;4986382;28;20656;-67
2021/03/14 03:25:55;;;;;;;3.90;3.30;;;5.30;99.90;;;;;;4984051;28;21191;-65
2021/03/14 03:28:23;;;;;;;5.43;3.53;;;5.30;99.90;;;;;;4989217;28;20289;-65
2021/03/14 03:30:58;;;;;;;6.17;3.40;;;5.30;99.90;;;;;;4982066;28;20732;-65
2021/03/14 03:33:28;;;;;;;7.70;3.67;;;5.30;99.90;;;;;;4988015;28;20665;-65
2021/03/14 03:35:58;;;;;;;4.10;3.00;;;5.40;99.90;;;;;;4982708;28;20648;-65
2021/03/14 03:38:33;;;;;;;5.63;3.60;;;5.40;99.90;;;;;;4988599;28;20657;-65
2021/03/14 03:41:01;;;;;;;6.90;3.50;;;5.40;99.90;;;;;;4988582;28;20595;-64
2021/03/14 03:43:42;;;;;;;6.10;3.33;;;5.40;99.90;;;;;;4979859;28;20659;-65
2021/03/14 03:46:13;;;;;;;6.80;3.33;;;5.40;99.90;;;;;;4985427;28;20622;-65
2021/03/14 03:49:04;;;;;;;4.13;3.00;;;5.40;99.90;;;;;;4981636;28;20648;-64
2021/03/14 03:51:40;;;;;;;7.57;2.90;;;5.40;99.90;;;;;;4980894;28;21062;-65
2021/03/14 03:54:13;;;;;;;6.33;2.93;;;5.60;99.90;;;;;;4983198;28;20653;-65
2021/03/14 03:56:44;;;;;;;10.13;2.77;;;5.60;99.90;;;;;;4994137;28;20610;-65
2021/03/14 03:59:13;;;;;;;5.63;3.10;;;5.50;99.90;;;;;;4993349;28;20669;-65
2021/03/14 04:01:44;;;;;;;6.00;2.77;;;5.50;99.90;;;;;;4996373;28;20634;-66
2021/03/14 04:04:13;;;;;;;4.57;2.93;;;5.60;99.90;;;;;;4976626;28;20665;-65
2021/03/14 04:06:42;;;;;;;5.43;3.40;;;5.50;99.90;;;;;;4980364;28;20656;-64
2021/03/14 04:09:10;;;;;;;8.27;3.53;;;5.60;99.90;;;;;;4977760;28;20731;-65
2021/03/14 04:11:41;;;;;;;4.97;2.70;;;5.70;99.90;;;;;;4986984;28;20671;-64
2021/03/14 04:14:16;;;;;;;7.07;5.07;;;5.60;99.90;;;;;;4983670;28;20649;-65
2021/03/14 04:16:53;;;;;;;5.80;3.17;;;5.70;99.90;;;;;;4985451;28;20735;-65
2021/03/14 04:19:27;;;;;;;5.53;2.80;;;5.70;99.90;;;;;;4985027;28;20967;-65
2021/03/14 04:22:05;;;;;;;6.67;2.57;;;5.60;99.90;;;;;;4982998;28;20660;-65
2021/03/14 04:24:45;;;;;;;7.80;2.83;;;5.80;99.90;;;;;;4986087;28;20652;-65
2021/03/14 04:27:13;;;;;;;7.27;2.80;;;5.80;99.90;;;;;;4988517;28;20700;-65
2021/03/14 04:29:40;;;;;;;5.13;2.47;;;5.80;99.90;;;;;;4980935;28;20744;-65
2021/03/14 04:32:10;;;;;;;6.70;3.33;;;5.80;99.90;;;;;;4985463;28;20648;-64
2021/03/14 04:34:39;;;;;;;7.90;2.80;;;5.70;99.90;;;;;;4990045;28;20644;-65
2021/03/14 04:37:07;;;;;;;4.93;2.50;;;5.70;99.90;;;;;;4988997;28;21242;-64
2021/03/14 04:39:33;;;;;;;7.30;2.87;;;5.70;99.90;;;;;;5001969;28;20629;-65
2021/03/14 04:42:09;;;;;;;7.00;3.03;;;5.70;99.90;;;;;;4987235;28;20633;-65
2021/03/14 04:44:36;;;;;;;6.70;2.80;;;5.70;99.90;;;;;;4984074;28;20699;-64
2021/03/14 04:47:07;;;;;;;11.23;3.27;;;5.70;99.90;;;;;;4986258;28;20641;-64
2021/03/14 04:49:37;;;;;;;9.13;3.40;;;5.80;99.90;;;;;;4982027;28;20792;-65
2021/03/14 04:52:09;;;;;;;5.07;3.10;;;5.70;99.90;;;;;;4980286;28;20613;-65
2021/03/14 04:54:49;;;;;;;7.20;3.40;;;5.70;99.90;;;;;;4979405;28;20787;-65
2021/03/14 04:57:34;;;;;;;10.33;3.17;;;5.80;99.90;;;;;;4992436;28;20602;-65
2021/03/14 05:00:25;;;;;;;6.37;3.33;;;5.90;99.90;;;;;;4988755;28;20598;-65
2021/03/14 05:02:57;;;;;;;7.23;2.87;;;5.90;99.90;;;;;;4986333;28;21313;-65
2021/03/14 05:05:33;;;;;;;6.40;3.07;;;5.90;99.90;;;;;;5032876;23;21266;-66
2021/03/14 05:08:03;;;;;;;6.93;3.40;;;5.80;99.90;;;;;;4998434;28;21001;-67
2021/03/14 05:10:31;;;;;;;7.90;3.27;;;5.90;99.90;;;;;;5006517;28;21187;-67
2021/03/14 05:13:03;;;;;;;10.50;3.40;;;5.90;99.90;;;;;;4997096;28;20642;-68
2021/03/14 05:15:38;;;;;;;8.80;3.60;;;5.80;99.90;;;;;;4993569;28;20655;-69
2021/03/14 05:18:12;;;;;;;9.00;3.80;;;5.80;99.90;;;;;;5001608;28;20620;-67
2021/03/14 05:20:42;;;;;;;13.00;4.20;;;5.80;99.90;;;;;;5001428;28;20612;-68
2021/03/14 05:23:16;;;;;;;8.73;3.67;;;5.80;99.90;;;;;;5004684;28;20647;-66
2021/03/14 05:25:44;;;;;;;6.90;3.30;;;5.90;99.90;;;;;;5001744;28;20635;-67
2021/03/14 05:28:20;;;;;;;7.97;3.60;;;5.90;99.90;;;;;;4999878;28;20617;-67
2021/03/14 05:30:56;;;;;;;8.20;4.10;;;5.90;99.90;;;;;;5005201;28;20589;-69
2021/03/14 05:33:34;;;;;;;8.57;4.10;;;5.90;99.90;;;;;;5013840;28;20742;-67
2021/03/14 05:36:11;;;;;;;6.87;2.70;;;6.00;99.90;;;;;;5020604;28;20608;-67
2021/03/14 05:38:44;;;;;;;8.50;3.33;;;5.90;99.90;;;;;;4996730;28;20632;-67
2021/03/14 05:41:20;;;;;;;6.50;2.93;;;6.00;99.90;;;;;;5014707;28;21206;-66
2021/03/14 05:43:47;;;;;;;7.23;3.30;;;6.00;99.90;;;;;;4991588;28;20753;-69
2021/03/14 05:46:20;;;;;;;8.53;3.50;;;6.00;99.90;;;;;;5007715;28;20597;-68
2021/03/14 05:48:54;;;;;;;6.30;3.40;;;6.10;99.90;;;;;;5002853;28;20631;-66
2021/03/14 05:51:37;;;;;;;8.90;3.70;;;6.10;99.90;;;;;;5006504;28;20629;-66
2021/03/14 05:54:11;;;;;;;8.40;3.93;;;6.10;99.90;;;;;;5025731;28;20655;-67
2021/03/14 05:56:57;;;;;;;8.17;3.70;;;6.30;99.90;;;;;;5004241;28;20628;-67
2021/03/14 05:59:27;;;;;;;7.77;3.63;;;6.10;99.90;;;;;;5015122;28;20767;-67
2021/03/14 06:02:04;;;;;;;8.50;4.00;;;6.10;99.90;;;;;;5037266;28;20609;-66
2021/03/14 06:07:20;;;;;;;7.80;3.80;;;6.20;99.90;;;;;;4996668;28;20569;-66
2021/03/14 06:09:51;;;;;;;9.77;4.20;;;6.20;99.90;;;;;;5003615;28;20652;-66
2021/03/14 06:12:32;;;;;;;6.67;3.80;;;6.30;99.90;;;;;;5013568;28;20625;-67
2021/03/14 06:15:02;;;;;;;14.03;3.90;;;6.30;99.90;;;;;;5010186;28;21043;-66
2021/03/14 06:17:30;;;;;;;8.67;4.37;;;6.30;99.90;;;;;;5004735;28;20620;-67
2021/03/14 06:19:58;;;;;;;10.43;4.60;;;6.20;99.90;;;;;;5006765;28;20759;-67
2021/03/14 06:22:28;;;;;;;10.63;3.73;;;6.20;99.90;;;;;;5008156;28;20631;-67
2021/03/14 06:24:54;;;;;;;9.83;4.03;;;6.30;99.90;;;;;;4996613;28;20654;-67
2021/03/14 06:27:57;;;;;;;6.97;3.63;;;6.30;99.90;;;;;;4997705;28;20604;-67
2021/03/14 06:30:32;;;;;;;10.90;4.10;;;6.30;99.90;;;;;;5004952;28;20620;-67
2021/03/14 06:33:07;;;;;;;14.27;4.17;;;6.40;99.90;;;;;;5003457;28;20744;-66
2021/03/14 06:36:03;;;;;;;8.30;3.97;;;6.40;99.90;;;;;;5008493;28;20945;-67
2021/03/14 06:38:38;;;;;;;12.77;4.50;;;6.40;99.90;;;;;;5014274;28;20625;-66
2021/03/14 06:44:36;;;;;;;10.00;4.20;;;6.50;99.90;;;;;;5001524;28;20778;-67
2021/03/14 06:47:13;;;;;;;8.43;4.03;;;6.40;99.90;;;;;;5005873;28;20672;-66
2021/03/14 06:49:44;;;;;;;11.17;3.80;;;6.60;99.90;;;;;;4997600;28;20652;-67
2021/03/14 06:52:17;;;;;;;10.17;3.70;;;6.50;99.90;;;;;;4999518;28;20591;-66
2021/03/14 06:54:49;;;;;;;10.33;3.93;;;6.60;99.90;;;;;;4995311;28;20636;-66
2021/03/14 06:57:20;;;;;;;9.27;4.10;;;6.70;99.90;;;;;;5004475;28;20616;-67
2021/03/14 07:00:03;;;;;;;9.80;3.53;;;6.70;99.90;;;;;;5002168;28;21003;-67
2021/03/14 07:02:30;;;;;;;11.30;4.43;;;6.70;99.90;;;;;;5009552;28;20663;-67
2021/03/14 07:04:57;;;;;;;13.07;4.40;;;6.70;99.90;;;;;;4984899;28;20744;-67
2021/03/14 07:07:41;;;;;;;9.67;3.90;;;6.70;99.90;;;;;;4989293;28;20617;-67
2021/03/14 07:10:16;;;;;;;10.37;4.50;;;6.60;99.90;;;;;;5012237;28;20659;-67
2021/03/14 07:12:47;;;;;;;7.73;3.93;;;6.70;99.90;;;;;;5000173;28;20632;-66
2021/03/14 07:15:13;;;;;;;10.20;3.70;;;6.70;99.90;;;;;;5002457;28;21475;-68
2021/03/14 07:17:40;;;;;;;11.20;3.90;;;6.70;99.90;;;;;;5007105;28;20711;-66
2021/03/14 07:20:18;;;;;;;15.70;4.20;;;6.80;99.90;;;;;;5011436;28;20645;-68
2021/03/14 07:22:57;;;;;;;9.47;3.67;;;6.80;99.90;;;;;;4994372;28;20668;-67
2021/03/14 07:25:23;;;;;;;9.10;3.47;;;6.80;99.90;;;;;;4998327;28;20654;-67
2021/03/14 07:27:52;;;;;;;12.23;3.10;;;6.80;99.90;;;;;;4997713;28;20633;-68
2021/03/14 07:30:20;;;;;;;7.73;4.13;;;6.80;99.90;;;;;;4995095;28;20660;-67
2021/03/14 07:32:49;;;;;;;9.10;3.30;;;6.80;99.90;;;;;;5014250;28;21057;-67
2021/03/14 07:35:19;;;;;;;6.00;3.23;;;6.80;99.90;;;;;;4997820;28;20644;-67
2021/03/14 07:37:48;;;;;;;7.70;3.17;;;6.70;99.90;;;;;;5002867;28;20617;-67
2021/03/14 07:40:18;;;;;;;9.63;3.40;;;6.70;99.90;;;;;;5000291;28;21239;-67
2021/03/14 07:42:47;;;;;;;12.70;3.50;;;6.70;99.90;;;;;;5002403;28;20690;-67
2021/03/14 07:45:16;;;;;;;9.50;3.47;;;6.70;99.90;;;;;;5000741;28;20644;-67
2021/03/14 07:47:42;;;;;;;10.50;4.60;;;6.80;99.90;;;;;;4997310;28;20619;-66
2021/03/14 07:50:16;;;;;;;11.67;3.93;;;6.80;99.90;;;;;;4999256;28;21211;-66
2021/03/14 07:52:42;;;;;;;9.63;3.40;;;6.80;99.90;;;;;;5023386;28;21008;-67
2021/03/14 07:55:18;;;;;;;11.73;3.63;;;6.90;99.90;;;;;;4997023;28;20660;-67
2021/03/14 07:57:49;;;;;;;6.73;3.60;;;6.80;99.90;;;;;;5005495;28;20243;-67
2021/03/14 08:00:42;;;;;;;9.93;4.23;;;6.80;99.90;;;;;;4997953;28;21193;-67
2021/03/14 08:03:09;;;;;;;7.90;4.20;;;6.80;99.90;;;;;;4999351;28;20651;-66
2021/03/14 08:05:50;;;;;;;10.67;3.90;;;6.70;99.90;;;;;;5001070;28;20687;-67
2021/03/14 08:08:25;;;;;;;8.40;3.90;;;6.80;99.90;;;;;;5000933;28;20620;-66
2021/03/14 08:10:56;;;;;;;13.20;4.27;;;6.80;99.90;;;;;;4999516;28;20615;-66
2021/03/14 08:13:31;;;;;;;7.67;4.07;;;6.90;99.90;;;;;;4997043;28;20766;-67
2021/03/14 08:16:07;;;;;;;9.53;4.23;;;6.80;99.90;;;;;;5003686;28;20604;-66
2021/03/14 08:18:42;;;;;;;13.10;4.90;;;7.00;99.90;;;;;;5004980;28;20635;-67
2021/03/14 08:21:30;;;;;;;7.37;3.37;;;6.90;99.90;;;;;;5003466;28;20661;-66
2021/03/14 08:23:57;;;;;;;9.40;3.97;;;7.00;99.90;;;;;;4971995;28;20652;-67
2021/03/14 08:26:37;;;;;;;12.20;3.90;;;7.20;99.90;;;;;;4985739;28;20650;-67
2021/03/14 08:29:13;;;;;;;7.60;3.30;;;7.30;99.90;;;;;;5005244;28;21265;-71
2021/03/14 08:31:52;;;;;;;9.97;5.13;;;7.40;99.90;;;;;;4994936;28;20616;-67
2021/03/14 08:34:19;;;;;;;12.10;3.73;;;7.40;99.90;;;;;;4998411;28;20644;-67
2021/03/14 08:36:46;;;;;;;6.60;3.50;;;7.40;99.90;;;;;;5004272;28;21269;-67
2021/03/14 08:39:29;;;;;;;9.63;3.57;;;7.40;99.90;;;;;;4993630;28;20657;-67
2021/03/14 08:42:02;;;;;;;7.90;3.60;;;7.50;99.90;;;;;;5002775;28;21178;-66
2021/03/14 08:44:40;;;;;;;9.60;3.77;;;7.50;99.90;;;;;;5024774;28;20644;-67
2021/03/14 08:47:13;;;;;;;8.33;3.70;;;7.30;99.90;;;;;;5019395;28;20622;-66
2021/03/14 08:49:42;;;;;;;9.93;3.63;;;7.30;99.90;;;;;;4989322;28;20644;-66
2021/03/14 08:52:09;;;;;;;7.07;3.17;;;7.30;99.90;;;;;;5008679;28;20619;-63
2021/03/14 08:54:46;;;;;;;6.13;2.93;;;7.30;99.90;;;;;;5010804;28;21036;-65
2021/03/14 08:57:16;;;;;;;7.27;3.50;;;7.40;99.90;;;;;;5000768;28;20681;-65
2021/03/14 08:59:46;;;;;;;7.97;3.20;;;7.50;99.90;;;;;;5008072;28;20632;-67
2021/03/14 09:02:39;;;;;;;6.27;2.87;;;7.50;99.90;;;;;;4993667;28;20643;-65
2021/03/14 09:05:14;;;;;;;7.77;2.90;;;7.60;99.90;;;;;;4991176;28;20714;-65
2021/03/14 09:07:44;;;;;;;5.50;2.60;;;7.80;99.90;;;;;;4990995;28;20628;-67
2021/03/14 09:10:14;;;;;;;6.50;2.80;;;7.60;99.90;;;;;;5003082;28;20652;-65
2021/03/14 09:12:41;;;;;;;4.23;2.57;;;7.70;99.90;;;;;;4994401;28;20657;-65
2021/03/14 09:15:12;;;;;;;6.27;2.93;;;7.80;99.90;;;;;;4998402;28;20647;-68
2021/03/14 09:17:40;;;;;;;5.00;2.60;;;7.80;99.90;;;;;;5016462;28;20699;-65
2021/03/14 09:20:07;;;;;;;3.03;2.20;;;8.00;99.90;;;;;;5000007;28;20613;-65
2021/03/14 09:22:34;;;;;;;4.00;2.50;;;8.10;99.90;;;;;;5000500;28;21002;-66
2021/03/14 09:25:03;;;;;;;6.27;3.43;;;8.10;99.90;;;;;;4999330;28;20652;-66
2021/03/14 09:27:34;;;;;;;4.13;2.20;;;8.10;99.90;;;;;;5018006;28;20644;-66
2021/03/14 09:30:07;;;;;;;4.63;2.40;;;8.00;99.90;;;;;;4996179;28;20640;-66
2021/03/14 09:32:52;;;;;;;5.27;2.20;;;8.10;99.90;;;;;;5002635;28;20644;-66
2021/03/14 09:35:35;;;;;;;6.67;2.33;;;8.30;99.90;;;;;;5016753;28;20746;-66
2021/03/14 09:38:08;;;;;;;3.00;1.93;;;8.20;99.90;;;;;;4995021;28;20589;-64
2021/03/14 09:40:43;;;;;;;5.97;2.37;;;8.30;99.90;;;;;;5021207;28;20679;-66
2021/03/14 09:43:28;;;;;;;6.57;2.30;;;8.40;99.90;;;;;;5011607;28;20647;-66
2021/03/14 09:46:01;;;;;;;8.60;2.03;;;8.40;99.90;;;;;;5001524;28;20686;-66
2021/03/14 09:48:26;;;;;;;3.40;1.70;;;8.40;99.90;;;;;;5000681;28;20659;-65
2021/03/14 09:50:56;;;;;;;7.53;1.80;;;8.40;99.90;;;;;;5001048;28;20656;-65
2021/03/14 09:53:27;;;;;;;5.30;2.63;;;8.50;99.90;;;;;;5000811;28;20638;-65
2021/03/14 09:55:55;;;;;;;10.07;2.30;;;8.60;99.90;;;;;;4996636;28;20651;-65
2021/03/14 09:58:23;;;;;;;7.40;2.33;;;8.60;99.90;;;;;;4992675;28;20980;-65
2021/03/14 10:00:52;;;;;;;3.60;1.53;;;8.50;99.90;;;;;;5004722;28;20620;-66
2021/03/14 10:03:21;;;;;;;6.80;1.70;;;8.60;99.90;;;;;;4995915;28;21226;-67
2021/03/14 10:05:48;;;;;;;5.23;1.27;;;8.60;99.90;;;;;;5014703;28;20646;-64
2021/03/14 10:08:22;;;;;;;4.37;1.73;;;8.60;99.90;;;;;;4999479;28;20621;-66
2021/03/14 10:10:50;;;;;;;8.53;1.67;;;8.70;99.90;;;;;;5008850;28;20616;-65
2021/03/14 10:13:18;;;;;;;8.77;1.80;;;8.70;99.90;;;;;;5005018;28;20655;-65
2021/03/14 10:15:47;;;;;;;5.90;1.97;;;8.70;99.90;;;;;;4998248;28;20643;-65
2021/03/14 10:18:17;;;;;;;6.10;1.57;;;8.70;99.90;;;;;;4999159;28;20616;-66
2021/03/14 10:20:43;;;;;;;4.50;1.77;;;8.90;99.90;;;;;;4995334;28;20661;-66
2021/03/14 10:23:09;;;;;;;10.83;2.33;;;8.90;99.90;;;;;;4998700;28;20637;-66
2021/03/14 10:25:37;;;;;;;5.73;1.63;;;8.90;99.90;;;;;;4993600;28;20233;-66
2021/03/14 10:28:04;;;;;;;5.90;1.90;;;9.00;99.90;;;;;;4986065;28;20644;-66
2021/03/14 10:30:30;;;;;;;5.37;2.20;;;9.00;99.90;;;;;;4995568;28;20783;-65
2021/03/14 10:32:57;;;;;;;5.03;2.20;;;8.90;99.90;;;;;;4999592;28;20636;-67
2021/03/14 10:35:23;;;;;;;7.10;2.40;;;8.70;99.90;;;;;;4992585;28;20735;-66
2021/03/14 10:37:49;;;;;;;5.90;2.30;;;8.60;99.90;;;;;;5000106;28;20324;-65
2021/03/14 10:40:20;;;;;;;8.87;2.37;;;8.70;99.90;;;;;;4990010;28;20186;-66
2021/03/14 10:42:49;;;;;;;6.37;2.60;;;8.90;99.90;;;;;;4993759;28;20345;-66
2021/03/14 10:45:18;;;;;;;12.10;2.30;;;8.90;99.90;;;;;;4998453;28;20740;-66
2021/03/14 10:47:47;;;;;;;9.93;2.40;;;9.00;99.90;;;;;;5005364;28;20625;-65
2021/03/14 10:50:20;;;;;;;10.00;2.73;;;9.00;99.90;;;;;;4991697;28;20651;-68
2021/03/14 10:53:05;;;;;;;9.40;2.60;;;9.10;99.90;;;;;;4999969;28;20689;-66
2021/03/14 10:55:31;;;;;;;4.97;1.90;;;9.00;99.90;;;;;;4997597;28;20741;-65
2021/03/14 10:58:16;;;;;;;5.20;2.00;;;8.80;99.90;;;;;;4999693;28;21127;-66
2021/03/14 11:00:51;;;;;;;3.97;1.80;;;8.60;99.90;;;;;;4994002;28;20333;-66
2021/03/14 11:03:37;;;;;;;7.80;2.10;;;8.50;99.90;;;;;;4993359;28;20651;-66
2021/03/14 11:06:09;;;;;;;4.77;1.70;;;8.60;99.90;;;;;;4995700;23;20697;-62
2021/03/14 11:08:52;;;;;;;4.00;1.50;;;8.60;99.90;;;;;;4971392;28;20642;-62
2021/03/14 11:11:19;;;;;;;3.60;1.47;;;8.60;99.90;;;;;;4961652;28;20641;-62
2021/03/14 11:13:45;;;;;;;3.23;1.30;;;8.60;99.90;;;;;;4956882;28;21062;-62
2021/03/14 11:16:11;;;;;;;2.57;1.30;;;8.50;99.90;;;;;;4957489;28;20657;-62
2021/03/14 11:18:36;;;;;;;6.90;1.50;;;8.40;99.90;;;;;;4958584;28;20214;-63
2021/03/14 11:21:03;;;;;;;3.87;1.83;;;8.50;99.90;;;;;;4964170;28;20194;-61
2021/03/14 11:23:29;;;;;;;3.67;1.67;;;8.60;99.90;;;;;;4958618;28;20939;-63
2021/03/14 11:25:54;;;;;;;5.00;1.90;;;8.60;99.90;;;;;;4958583;28;20650;-62
2021/03/14 11:28:20;;;;;;;6.60;2.27;;;8.80;99.90;;;;;;4975197;28;20179;-64
2021/03/14 11:30:46;;;;;;;4.73;2.30;;;8.90;99.90;;;;;;4955664;28;20219;-64
2021/03/14 11:33:11;;;;;;;7.53;1.90;;;9.00;99.90;;;;;;4967233;28;20223;-69
2021/03/14 11:35:37;;;;;;;7.17;2.00;;;9.10;99.90;;;;;;4960751;28;20614;-69
2021/03/14 11:38:03;;;;;;;3.70;2.00;;;9.30;99.90;;;;;;4956102;28;20218;-68
2021/03/14 11:40:29;;;;;;;4.93;2.23;;;9.30;99.90;;;;;;4963223;28;20202;-68
2021/03/14 11:42:57;;;;;;;6.43;2.80;;;9.30;99.90;;;;;;4966194;28;20647;-68
2021/03/14 11:45:23;;;;;;;5.47;2.07;;;9.40;99.90;;;;;;4963682;28;21331;-68
2021/03/14 11:47:49;;;;;;;4.97;1.93;;;9.30;99.90;;;;;;4957442;28;20623;-68
2021/03/14 11:50:15;;;;;;;6.83;2.17;;;9.30;99.90;;;;;;4970946;28;20583;-67
2021/03/14 11:52:42;;;;;;;7.00;2.40;;;9.30;99.90;;;;;;4976104;28;20693;-64
2021/03/14 11:55:08;;;;;;;5.40;2.17;;;9.40;99.90;;;;;;4966562;28;20700;-64
2021/03/14 11:57:34;;;;;;;5.80;2.40;;;9.50;99.90;;;;;;4959130;28;20623;-65
2021/03/14 12:00:02;;;;;;;6.57;2.10;;;9.60;99.90;;;;;;4966570;28;21193;-65
2021/03/14 12:02:27;;;;;;;5.67;1.67;;;9.80;99.90;;;;;;4961939;28;20242;-64
2021/03/14 12:04:53;;;;;;;4.37;2.07;;;9.90;99.90;;;;;;4958965;28;20787;-64
2021/03/14 12:07:19;;;;;;;3.70;2.00;;;10.00;99.90;;;;;;4960920;28;20564;-65
2021/03/14 12:09:44;;;;;;;7.07;2.47;;;10.10;99.90;;;;;;4961412;28;20219;-64
2021/03/14 12:12:10;;;;;;;6.57;2.00;;;10.10;99.90;;;;;;4964394;28;20190;-64
2021/03/14 12:14:36;;;;;;;4.37;2.13;;;10.20;99.90;;;;;;4961784;28;20534;-65
2021/03/14 12:17:02;;;;;;;6.17;1.90;;;10.30;99.90;;;;;;4962541;28;20614;-64
2021/03/14 12:19:29;;;;;;;6.43;1.97;;;10.50;99.90;;;;;;4971165;28;20224;-65
2021/03/14 12:21:55;;;;;;;4.33;2.30;;;10.80;99.90;;;;;;4964162;28;20736;-64
2021/03/14 12:24:23;;;;;;;5.00;1.83;;;10.90;99.90;;;;;;4955998;28;20714;-63
2021/03/14 12:26:48;;;;;;;4.90;1.60;;;10.90;99.90;;;;;;4958962;28;20218;-64
2021/03/14 12:29:14;;;;;;;7.17;1.70;;;11.00;99.90;;;;;;4961765;28;20649;-63
2021/03/14 12:31:39;;;;;;;4.10;1.80;;;10.90;99.90;;;;;;4960004;28;20195;-63
2021/03/14 12:34:05;;;;;;;11.20;2.57;;;11.00;99.90;;;;;;4955940;28;20214;-64
2021/03/14 12:36:31;;;;;;;5.73;1.90;;;10.90;99.90;;;;;;4955229;28;20679;-64
2021/03/14 12:38:56;;;;;;;5.27;2.07;;;10.90;99.90;;;;;;4951048;28;20303;-63
2021/03/14 12:41:22;;;;;;;6.90;1.90;;;11.30;99.90;;;;;;4956663;28;20382;-64
2021/03/14 12:43:47;;;;;;;3.70;1.57;;;11.70;99.90;;;;;;4950412;28;20216;-64
2021/03/14 12:46:13;;;;;;;4.53;1.23;;;12.50;99.90;;;;;;4967059;28;20784;-65
2021/03/14 12:48:39;;;;;;;5.30;1.73;;;13.80;99.90;;;;;;4969815;28;20190;-63
2021/03/14 12:51:07;;;;;;;4.13;1.47;;;15.10;99.90;;;;;;4962176;28;20191;-63
2021/03/14 12:53:32;;;;;;;4.20;1.47;;;16.00;99.90;;;;;;4952770;28;20233;-66
2021/03/14 12:56:00;;;;;;;4.97;1.40;;;15.70;99.90;;;;;;4955081;28;20655;-64
2021/03/14 12:58:26;;;;;;;6.33;1.50;;;14.70;99.90;;;;;;4958042;28;20199;-63
2021/03/14 13:00:52;;;;;;;2.47;1.40;;;14.40;99.90;;;;;;4945081;28;20918;-63
2021/03/14 13:03:17;;;;;;;4.33;1.40;;;14.50;99.90;;;;;;4960358;28;20661;-63
2021/03/14 13:05:43;;;;;;;3.40;1.30;;;14.40;99.90;;;;;;4970000;28;20305;-63
2021/03/14 13:08:08;;;;;;;5.60;1.40;;;14.70;99.90;;;;;;4964899;28;21123;-64
2021/03/14 13:10:36;;;;;;;3.80;1.63;;;15.20;99.90;;;;;;4961400;28;20246;-63
2021/03/14 13:13:05;;;;;;;5.03;1.60;;;15.70;99.90;;;;;;4965514;28;20262;-64
2021/03/14 13:15:32;;;;;;;4.37;2.00;;;15.90;99.90;;;;;;4966029;28;20654;-64
2021/03/14 13:17:57;;;;;;;3.90;1.30;;;15.30;99.90;;;;;;4965046;28;21311;-64
2021/03/14 13:20:23;;;;;;;6.53;1.50;;;15.10;99.90;;;;;;4965688;28;20657;-64
2021/03/14 13:22:49;;;;;;;5.00;1.30;;;15.50;99.90;;;;;;4964741;28;20304;-65
2021/03/14 13:25:17;;;;;;;4.93;1.33;;;16.10;99.90;;;;;;4963360;28;20685;-65
2021/03/14 13:27:47;;;;;;;3.10;1.63;;;16.60;99.90;;;;;;4965743;28;20202;-66
2021/03/14 13:30:14;;;;;;;4.37;1.40;;;17.30;99.90;;;;;;4969015;28;20700;-66